createdAt,value
2023-02-03T00:01:03.946Z,102702.94
2023-02-03T00:03:30.624Z,102694.50
2023-02-03T00:05:57.490Z,102704.94
2023-02-03T00:08:24.179Z,102702.66
2023-02-03T00:10:51.269Z,102707.25
2023-02-03T00:13:18.095Z,102707.75
2023-02-03T00:15:44.934Z,102705.56
2023-02-03T00:18:12.059Z,102703.94
2023-02-03T00:20:38.770Z,102705.53
2023-02-03T00:23:10.073Z,102701.56
2023-02-03T00:25:37.379Z,102705.72
2023-02-03T00:28:05.437Z,102697.13
2023-02-03T00:30:35.744Z,102698.66
2023-02-03T00:33:03.605Z,102693.34
2023-02-03T00:35:30.518Z,102701.34
2023-02-03T00:37:58.348Z,102700.94
2023-02-03T00:40:27.083Z,102705.81
2023-02-03T00:42:57.112Z,102700.31
2023-02-03T00:45:25.440Z,102706.72
2023-02-03T00:47:52.320Z,102700.47
2023-02-03T00:50:19.090Z,102696.88
2023-02-03T00:52:45.860Z,102701.25
2023-02-03T00:55:12.575Z,102707.31
2023-02-03T00:57:39.313Z,102706.72
2023-02-03T01:00:07.403Z,102708.19
2023-02-03T01:02:38.741Z,102711.31
2023-02-03T01:05:11.828Z,102699.38
2023-02-03T01:07:38.962Z,102699.59
2023-02-03T01:10:06.671Z,102691.59
2023-02-03T01:12:33.477Z,102699.84
2023-02-03T01:15:00.259Z,102703.19
2023-02-03T01:17:27.160Z,102705.38
2023-02-03T01:19:54.178Z,102699.13
2023-02-03T01:22:21.133Z,102688.00
2023-02-03T01:24:49.601Z,102681.69
2023-02-03T01:27:16.371Z,102677.88
2023-02-03T01:29:43.074Z,102681.69
2023-02-03T01:32:09.824Z,102687.00
2023-02-03T01:34:36.662Z,102679.75
2023-02-03T01:37:03.459Z,102679.88
2023-02-03T01:39:30.227Z,102682.75
2023-02-03T01:41:57.302Z,102676.69
2023-02-03T01:44:39.908Z,102683.47
2023-02-03T01:47:16.717Z,102684.19
2023-02-03T01:50:07.273Z,102683.56
2023-02-03T01:52:34.575Z,102686.78
2023-02-03T01:55:05.809Z,102677.34
2023-02-03T01:57:38.286Z,102683.78
2023-02-03T02:00:08.023Z,102681.03
2023-02-03T02:02:44.473Z,102672.47
2023-02-03T02:05:22.600Z,102677.00
2023-02-03T02:07:49.875Z,102674.56
2023-02-03T02:10:16.916Z,102679.97
2023-02-03T02:12:43.958Z,102676.44
2023-02-03T02:15:11.088Z,102666.91
2023-02-03T02:18:05.596Z,102660.91
2023-02-03T02:20:32.270Z,102662.91
2023-02-03T02:23:13.927Z,102664.41
2023-02-03T02:25:59.009Z,102659.13
2023-02-03T02:28:44.463Z,102659.00
2023-02-03T02:31:53.723Z,102664.28
2023-02-03T02:34:57.428Z,102665.78
2023-02-03T02:37:28.105Z,102660.59
2023-02-03T02:40:07.629Z,102672.16
2023-02-03T02:42:59.770Z,102665.16
2023-02-03T02:45:50.979Z,102666.53
2023-02-03T02:48:42.030Z,102662.22
2023-02-03T02:51:12.365Z,102662.44
2023-02-03T02:53:44.410Z,102657.03
2023-02-03T02:56:15.522Z,102656.59
2023-02-03T02:58:47.312Z,102657.84
2023-02-03T03:01:14.480Z,102653.72
2023-02-03T03:03:45.053Z,102647.06
2023-02-03T03:06:14.724Z,102657.22
2023-02-03T03:09:11.965Z,102648.13
2023-02-03T03:11:50.272Z,102641.06
2023-02-03T03:14:21.657Z,102651.31
2023-02-03T03:16:57.346Z,102646.66
2023-02-03T03:19:28.499Z,102644.94
2023-02-03T03:21:59.828Z,102639.56
2023-02-03T03:24:33.810Z,102635.31
2023-02-03T03:27:19.266Z,102634.59
2023-02-03T03:29:59.534Z,102635.03
2023-02-03T03:32:28.245Z,102641.34
2023-02-03T03:34:55.970Z,102636.63
2023-02-03T03:37:32.638Z,102641.44
2023-02-03T03:40:23.968Z,102634.16
2023-02-03T03:42:58.116Z,102627.94
2023-02-03T03:45:47.094Z,102633.50
2023-02-03T03:48:21.711Z,102633.91
2023-02-03T03:50:55.605Z,102635.91
2023-02-03T03:53:23.958Z,102640.53
2023-02-03T03:55:52.950Z,102634.75
2023-02-03T03:58:30.484Z,102630.41
2023-02-03T04:01:01.320Z,102629.97
2023-02-03T04:03:33.986Z,102644.88
2023-02-03T04:06:00.836Z,102633.88
2023-02-03T04:08:27.673Z,102643.72
2023-02-03T04:10:54.491Z,102645.59
2023-02-03T04:13:21.236Z,102636.75
2023-02-03T04:15:48.054Z,102641.28
2023-02-03T04:18:16.485Z,102648.63
2023-02-03T04:20:43.527Z,102641.94
2023-02-03T04:23:10.306Z,102643.72
2023-02-03T04:25:37.108Z,102644.78
2023-02-03T04:28:04.305Z,102644.03
2023-02-03T04:30:31.235Z,102650.28
2023-02-03T04:32:58.104Z,102643.09
2023-02-03T04:35:26.093Z,102638.41
2023-02-03T04:37:52.878Z,102638.19
2023-02-03T04:40:19.719Z,102646.84
2023-02-03T04:42:46.518Z,102641.31
2023-02-03T04:45:13.370Z,102638.97
2023-02-03T04:47:40.301Z,102643.22
2023-02-03T04:50:07.783Z,102646.19
2023-02-03T04:52:34.614Z,102638.06
2023-02-03T04:55:01.429Z,102635.78
2023-02-03T04:57:28.200Z,102630.41
2023-02-03T04:59:54.952Z,102646.50
2023-02-03T05:02:21.766Z,102647.13
2023-02-03T05:04:48.532Z,102656.19
2023-02-03T05:07:15.248Z,102640.28
2023-02-03T05:09:42.064Z,102645.78
2023-02-03T05:12:08.814Z,102641.75
2023-02-03T05:14:35.518Z,102642.31
2023-02-03T05:17:02.338Z,102632.16
2023-02-03T05:19:29.058Z,102637.44
2023-02-03T05:21:55.796Z,102631.75
2023-02-03T05:24:22.548Z,102641.47
2023-02-03T05:26:49.255Z,102625.16
2023-02-03T05:29:15.969Z,102631.53
2023-02-03T05:31:42.768Z,102632.50
2023-02-03T05:34:09.570Z,102643.72
2023-02-03T05:36:36.331Z,102640.50
2023-02-03T05:39:03.654Z,102646.81
2023-02-03T05:41:48.804Z,102660.78
2023-02-03T05:44:15.647Z,102661.56
2023-02-03T05:46:42.458Z,102666.91
2023-02-03T05:49:09.211Z,102666.06
2023-02-03T05:51:36.101Z,102658.63
2023-02-03T05:54:02.958Z,102669.97
2023-02-03T05:56:29.714Z,102673.25
2023-02-03T05:58:56.472Z,102667.78
2023-02-03T06:01:23.552Z,102680.09
2023-02-03T06:03:50.645Z,102683.47
2023-02-03T06:06:17.963Z,102689.09
2023-02-03T06:08:44.734Z,102690.91
2023-02-03T06:11:12.981Z,102698.28
2023-02-03T06:13:39.747Z,102702.31
2023-02-03T06:16:06.711Z,102696.19
2023-02-03T06:18:33.462Z,102707.50
2023-02-03T06:21:00.460Z,102698.63
2023-02-03T06:23:27.237Z,102702.28
2023-02-03T06:25:54.118Z,102693.88
2023-02-03T06:28:20.982Z,102693.13
2023-02-03T06:30:51.272Z,102694.94
2023-02-03T06:33:18.107Z,102692.50
2023-02-03T06:35:45.113Z,102700.19
2023-02-03T06:38:11.999Z,102705.34
2023-02-03T06:40:38.846Z,102703.41
2023-02-03T06:43:05.666Z,102714.41
2023-02-03T06:45:32.433Z,102708.94
2023-02-03T06:47:59.208Z,102708.28
2023-02-03T06:50:26.210Z,102718.47
2023-02-03T06:52:53.230Z,102712.34
2023-02-03T06:55:19.990Z,102714.47
2023-02-03T06:57:48.027Z,102725.47
2023-02-03T07:00:19.041Z,102718.16
2023-02-03T07:02:46.837Z,102726.53
2023-02-03T07:05:14.004Z,102730.47
2023-02-03T07:07:40.818Z,102721.81
2023-02-03T07:10:08.423Z,102739.91
2023-02-03T07:12:36.652Z,102738.34
2023-02-03T07:15:06.797Z,102740.88
2023-02-03T07:17:33.581Z,102739.81
2023-02-03T07:20:00.339Z,102739.91
2023-02-03T07:22:27.294Z,102743.47
2023-02-03T07:24:54.033Z,102763.56
2023-02-03T07:27:20.872Z,102762.25
2023-02-03T07:29:47.630Z,102758.13
2023-02-03T07:32:14.482Z,102766.03
2023-02-03T07:34:41.394Z,102757.44
2023-02-03T07:37:08.267Z,102767.13
2023-02-03T07:39:35.023Z,102771.06
2023-02-03T07:42:01.838Z,102774.28
2023-02-03T07:44:29.609Z,102768.38
2023-02-03T07:46:56.485Z,102778.53
2023-02-03T07:49:23.345Z,102781.16
2023-02-03T07:51:50.035Z,102777.78
2023-02-03T07:54:16.817Z,102788.91
2023-02-03T07:56:43.635Z,102789.09
2023-02-03T07:59:10.569Z,102793.84
2023-02-03T08:01:37.423Z,102786.44
2023-02-03T08:04:05.649Z,102794.28
2023-02-03T08:06:32.614Z,102791.53
2023-02-03T08:08:59.457Z,102799.16
2023-02-03T08:11:26.224Z,102801.47
2023-02-03T08:13:53.060Z,102802.31
2023-02-03T08:16:19.806Z,102812.59
2023-02-03T08:18:46.599Z,102799.16
2023-02-03T08:21:13.365Z,102807.31
2023-02-03T08:23:40.190Z,102810.91
2023-02-03T08:26:07.091Z,102798.84
2023-02-03T08:28:33.916Z,102803.41
2023-02-03T08:31:00.737Z,102803.06
2023-02-03T08:33:28.773Z,102816.41
2023-02-03T08:35:56.834Z,102821.28
2023-02-03T08:38:23.663Z,102816.22
2023-02-03T08:40:50.457Z,102819.53
2023-02-03T08:43:17.296Z,102823.09
2023-02-03T08:45:44.186Z,102820.78
2023-02-03T08:48:11.159Z,102819.06
2023-02-03T08:50:38.089Z,102812.63
2023-02-03T08:53:04.855Z,102816.34
2023-02-03T08:55:31.584Z,102824.59
2023-02-03T08:57:58.424Z,102821.41
2023-02-03T09:00:25.713Z,102830.09
2023-02-03T09:02:52.669Z,102828.94
2023-02-03T09:05:19.515Z,102825.84
2023-02-03T09:07:46.341Z,102834.19
2023-02-03T09:10:13.207Z,102827.94
2023-02-03T09:12:40.064Z,102832.19
2023-02-03T09:15:07.171Z,102826.66
2023-02-03T09:17:34.018Z,102833.19
2023-02-03T09:20:00.935Z,102836.31
2023-02-03T09:22:27.685Z,102840.72
2023-02-03T09:24:54.632Z,102837.25
2023-02-03T09:27:21.342Z,102843.72
2023-02-03T09:29:48.049Z,102821.94
2023-02-03T09:32:15.746Z,102832.84
2023-02-03T09:34:42.908Z,102832.94
2023-02-03T09:37:09.811Z,102833.53
2023-02-03T09:39:36.529Z,102831.59
2023-02-03T09:42:32.447Z,102824.78
2023-02-03T09:45:13.144Z,102827.75
2023-02-03T09:47:43.518Z,102825.28
2023-02-03T09:50:23.730Z,102824.63
2023-02-03T09:52:51.890Z,102835.88
2023-02-03T09:55:27.551Z,102830.44
2023-02-03T09:58:14.031Z,102834.22
2023-02-03T10:00:48.166Z,102833.22
2023-02-03T10:03:25.992Z,102832.63
2023-02-03T10:06:07.087Z,102837.59
2023-02-03T10:08:55.378Z,102843.97
2023-02-03T10:11:50.232Z,102844.81
2023-02-03T10:14:46.136Z,102831.00
2023-02-03T10:17:37.832Z,102839.03
2023-02-03T10:20:22.335Z,102845.06
2023-02-03T10:22:54.131Z,102846.25
2023-02-03T10:25:32.334Z,102834.84
2023-02-03T10:28:05.254Z,102842.50
2023-02-03T10:30:45.484Z,102831.81
2023-02-03T10:33:16.540Z,102829.25
2023-02-03T10:35:53.941Z,102823.28
2023-02-03T10:38:39.993Z,102826.47
2023-02-03T10:41:07.392Z,102821.84
2023-02-03T10:43:52.820Z,102811.69
2023-02-03T10:46:23.859Z,102811.72
2023-02-03T10:48:50.726Z,102809.69
2023-02-03T10:51:24.590Z,102815.50
2023-02-03T10:53:53.622Z,102811.84
2023-02-03T10:56:25.989Z,102811.66
2023-02-03T10:59:00.555Z,102800.44
2023-02-03T11:01:49.352Z,102795.97
2023-02-03T11:04:31.723Z,102791.75
2023-02-03T11:07:03.855Z,102784.47
2023-02-03T11:09:38.231Z,102774.88
2023-02-03T11:12:16.318Z,102778.78
2023-02-03T11:14:45.992Z,102769.34
2023-02-03T11:17:23.521Z,102772.97
2023-02-03T11:19:55.532Z,102766.63
2023-02-03T11:22:36.892Z,102763.75
2023-02-03T11:25:15.842Z,102757.84
2023-02-03T11:27:43.306Z,102746.44
2023-02-03T11:30:30.628Z,102746.84
2023-02-03T11:33:02.155Z,102742.09
2023-02-03T11:35:31.869Z,102737.03
2023-02-03T11:38:02.280Z,102734.13
2023-02-03T11:40:34.232Z,102735.25
2023-02-03T11:43:05.812Z,102733.97
2023-02-03T11:45:42.158Z,102726.53
2023-02-03T11:48:23.759Z,102726.69
2023-02-03T11:51:22.450Z,102714.25
2023-02-03T11:53:57.485Z,102715.97
2023-02-03T11:56:33.266Z,102722.75
2023-02-03T11:59:20.892Z,102710.44
2023-02-03T12:02:15.680Z,102709.28
2023-02-03T12:05:20.567Z,102706.34
2023-02-03T12:07:59.318Z,102703.84
2023-02-03T12:10:42.065Z,102687.91
2023-02-03T12:13:41.289Z,102687.06
2023-02-03T12:16:55.726Z,102678.69
2023-02-03T12:19:22.462Z,102673.66
2023-02-03T12:22:30.419Z,102668.13
2023-02-03T12:25:23.449Z,102666.81
2023-02-03T12:28:04.176Z,102666.81
2023-02-03T12:30:38.612Z,102662.63
2023-02-03T12:33:16.415Z,102648.72
2023-02-03T12:36:13.188Z,102650.94
2023-02-03T12:39:03.585Z,102644.91
2023-02-03T12:41:36.623Z,102648.44
2023-02-03T12:44:20.210Z,102644.41
2023-02-03T12:46:56.393Z,102640.53
2023-02-03T12:49:44.927Z,102632.81
2023-02-03T12:52:18.469Z,102632.19
2023-02-03T12:55:16.341Z,102626.69
2023-02-03T12:58:06.470Z,102625.00
2023-02-03T13:00:57.329Z,102613.28
2023-02-03T13:03:50.348Z,102613.78
2023-02-03T13:06:32.496Z,102607.41
2023-02-03T13:09:08.599Z,102607.91
2023-02-03T13:11:48.694Z,102601.16
2023-02-03T13:14:40.223Z,102608.03
2023-02-03T13:17:15.626Z,102599.16
2023-02-03T13:19:50.446Z,102589.81
2023-02-03T13:22:17.973Z,102588.47
2023-02-03T13:24:56.484Z,102593.69
2023-02-03T13:27:46.942Z,102592.63
2023-02-03T13:30:55.195Z,102590.97
2023-02-03T13:34:04.040Z,102592.13
2023-02-03T13:36:39.700Z,102592.44
2023-02-03T13:40:03.678Z,102597.31
2023-02-03T13:42:38.309Z,102593.75
2023-02-03T13:45:41.645Z,102598.09
2023-02-03T13:48:22.521Z,102591.75
2023-02-03T13:51:05.371Z,102603.28
2023-02-03T13:53:36.872Z,102608.63
2023-02-03T13:56:18.227Z,102593.56
2023-02-03T13:59:13.973Z,102606.63
2023-02-03T14:01:42.703Z,102607.38
2023-02-03T14:04:31.710Z,102601.91
2023-02-03T14:07:01.551Z,102609.22
2023-02-03T14:09:31.544Z,102608.56
2023-02-03T14:12:30.261Z,102610.22
2023-02-03T14:15:04.947Z,102612.75
2023-02-03T14:17:34.481Z,102610.22
2023-02-03T14:20:22.615Z,102616.59
2023-02-03T14:22:50.023Z,102615.28
2023-02-03T14:25:19.045Z,102613.75
2023-02-03T14:27:45.912Z,102613.59
2023-02-03T14:30:16.862Z,102615.28
2023-02-03T14:32:59.477Z,102608.06
2023-02-03T14:35:40.287Z,102604.69
2023-02-03T14:38:10.898Z,102604.22
2023-02-03T14:40:48.128Z,102608.38
2023-02-03T14:43:24.326Z,102604.34
2023-02-03T14:46:09.842Z,102610.53
2023-02-03T14:49:09.142Z,102608.00
2023-02-03T14:51:55.874Z,102605.81
2023-02-03T14:54:47.677Z,102595.09
2023-02-03T14:57:29.403Z,102599.78
2023-02-03T15:00:05.771Z,102597.78
2023-02-03T15:02:34.408Z,102605.63
2023-02-03T15:05:13.338Z,102608.13
2023-02-03T15:07:45.510Z,102612.94
2023-02-03T15:10:36.625Z,102612.78
2023-02-03T15:13:03.390Z,102613.81
2023-02-03T15:15:34.168Z,102609.97
2023-02-03T15:18:21.333Z,102606.94
2023-02-03T15:20:53.881Z,102610.28
2023-02-03T15:23:48.146Z,102615.28
2023-02-03T15:26:18.537Z,102621.47
2023-02-03T15:29:05.011Z,102614.09
2023-02-03T15:31:37.335Z,102625.78
2023-02-03T15:34:23.216Z,102626.94
2023-02-03T15:36:52.607Z,102624.44
2023-02-03T15:39:39.586Z,102623.06
2023-02-03T15:42:18.932Z,102633.78
2023-02-03T15:45:17.778Z,102634.09
2023-02-03T15:47:54.927Z,102628.03
2023-02-03T15:50:31.335Z,102627.06
2023-02-03T15:53:07.738Z,102629.72
2023-02-03T15:55:43.591Z,102627.22
2023-02-03T15:58:24.970Z,102627.88
2023-02-03T16:00:55.981Z,102618.38
2023-02-03T16:03:33.509Z,102617.72
2023-02-03T16:06:30.683Z,102613.88
2023-02-03T16:08:58.832Z,102618.22
2023-02-03T16:11:33.549Z,102621.38
2023-02-03T16:14:03.771Z,102617.16
2023-02-03T16:16:39.593Z,102613.81
2023-02-03T16:19:15.763Z,102621.16
2023-02-03T16:21:48.295Z,102615.09
2023-02-03T16:24:33.986Z,102610.53
2023-02-03T16:27:19.556Z,102621.22
2023-02-03T16:30:04.959Z,102621.19
2023-02-03T16:32:50.182Z,102620.34
2023-02-03T16:35:35.623Z,102624.16
2023-02-03T16:38:35.403Z,102619.53
2023-02-03T16:41:24.551Z,102621.97
2023-02-03T16:44:09.912Z,102612.91
2023-02-03T16:46:55.608Z,102620.94
2023-02-03T16:49:41.042Z,102620.44
2023-02-03T16:52:08.644Z,102630.75
2023-02-03T16:54:35.410Z,102632.88
2023-02-03T16:57:02.184Z,102632.69
2023-02-03T16:59:28.888Z,102627.13
2023-02-03T17:01:55.628Z,102634.53
2023-02-03T17:04:22.384Z,102640.19
2023-02-03T17:06:51.242Z,102645.84
2023-02-03T17:09:23.475Z,102646.75
2023-02-03T17:11:50.819Z,102646.06
2023-02-03T17:14:17.523Z,102647.22
2023-02-03T17:16:44.322Z,102652.72
2023-02-03T17:19:12.188Z,102652.97
2023-02-03T17:21:39.402Z,102657.41
2023-02-03T17:24:06.623Z,102656.59
2023-02-03T17:26:34.430Z,102656.19
2023-02-03T17:29:03.455Z,102662.97
2023-02-03T17:31:31.160Z,102661.44
2023-02-03T17:33:59.039Z,102667.06
2023-02-03T17:36:25.830Z,102665.97
2023-02-03T17:55:24.552Z,102670.38
2023-02-03T17:57:51.537Z,102669.00
2023-02-03T18:00:18.574Z,102661.44
2023-02-03T18:02:49.425Z,102661.59
2023-02-03T18:05:16.308Z,102658.06
2023-02-03T18:07:43.288Z,102658.19
2023-02-03T18:10:10.608Z,102660.59
2023-02-03T18:12:37.325Z,102659.09
2023-02-03T18:15:04.186Z,102656.84
2023-02-03T18:17:31.005Z,102662.78
2023-02-03T18:20:00.411Z,102663.75
2023-02-03T18:22:27.222Z,102663.75
2023-02-03T18:24:55.451Z,102664.59
2023-02-03T18:27:22.382Z,102673.88
2023-02-03T18:29:49.079Z,102672.22
2023-02-03T18:32:16.359Z,102663.50
2023-02-03T18:34:43.354Z,102675.16
2023-02-03T18:37:10.095Z,102668.41
2023-02-03T18:39:36.862Z,102674.91
2023-02-03T18:42:04.600Z,102671.66
2023-02-03T18:44:31.824Z,102674.75
2023-02-03T18:47:06.953Z,102671.66
2023-02-03T18:49:36.214Z,102672.09
2023-02-03T18:52:04.237Z,102681.91
2023-02-03T18:54:31.302Z,102683.06
2023-02-03T18:57:05.728Z,102682.78
2023-02-03T18:59:32.474Z,102684.91
2023-02-03T19:02:02.087Z,102691.94
2023-02-03T19:04:29.033Z,102696.41
2023-02-03T19:06:55.968Z,102696.84
2023-02-03T19:09:23.803Z,102687.44
2023-02-03T19:11:51.356Z,102693.59
2023-02-03T19:14:18.222Z,102692.63
2023-02-03T19:16:45.272Z,102706.66
2023-02-03T19:19:13.962Z,102703.00
2023-02-03T19:21:40.797Z,102713.38
2023-02-03T19:24:07.674Z,102706.78
2023-02-03T19:26:34.752Z,102711.28
2023-02-03T19:29:01.500Z,102718.19
2023-02-03T19:31:28.422Z,102720.69
2023-02-03T19:33:58.790Z,102720.56
2023-02-03T19:36:29.436Z,102719.44
2023-02-03T19:38:56.997Z,102714.53
2023-02-03T19:41:25.725Z,102720.69
2023-02-03T19:43:52.593Z,102720.28
2023-02-03T19:46:23.034Z,102717.19
2023-02-03T19:48:50.360Z,102719.59
2023-02-03T19:51:17.436Z,102721.41
2023-02-03T19:53:44.244Z,102720.28
2023-02-03T19:56:11.037Z,102717.75
2023-02-03T19:58:38.962Z,102715.94
2023-02-03T20:01:05.773Z,102718.19
2023-02-03T20:03:32.803Z,102718.72
2023-02-03T20:06:00.993Z,102721.69
2023-02-03T20:08:28.479Z,102712.56
2023-02-03T20:10:55.650Z,102710.19
2023-02-03T20:13:22.476Z,102709.19
2023-02-03T20:15:49.426Z,102704.13
2023-02-03T20:18:16.257Z,102713.25
2023-02-03T20:20:43.009Z,102713.53
2023-02-03T20:23:09.881Z,102714.63
2023-02-03T20:25:36.647Z,102715.66
2023-02-03T20:28:04.353Z,102716.00
2023-02-03T20:30:31.479Z,102712.94
2023-02-03T20:32:58.733Z,102720.06
2023-02-03T20:35:26.422Z,102711.38
2023-02-03T20:37:53.431Z,102706.75
2023-02-03T20:40:22.933Z,102715.72
2023-02-03T20:42:51.227Z,102717.13
2023-02-03T20:45:20.571Z,102712.34
2023-02-03T20:47:48.029Z,102714.56
2023-02-03T20:50:23.608Z,102712.75
2023-02-03T20:52:52.773Z,102709.06
2023-02-03T20:55:22.097Z,102711.44
2023-02-03T20:57:55.081Z,102712.13
2023-02-03T21:00:24.928Z,102708.75
2023-02-03T21:03:10.247Z,102706.78
2023-02-03T21:05:39.536Z,102701.13
2023-02-03T21:08:18.444Z,102696.75
2023-02-03T21:10:46.709Z,102699.06
2023-02-03T21:13:26.268Z,102702.63
2023-02-03T21:16:03.977Z,102693.13
2023-02-03T21:18:43.193Z,102692.13
2023-02-03T21:21:24.988Z,102694.09
2023-02-03T21:23:52.954Z,102695.84
2023-02-03T21:26:23.960Z,102686.28
2023-02-03T21:28:58.604Z,102694.88
2023-02-03T21:31:30.612Z,102696.09
2023-02-03T21:33:58.447Z,102690.16
2023-02-03T21:36:34.162Z,102685.31
2023-02-03T21:39:01.721Z,102682.66
2023-02-03T21:41:33.488Z,102676.13
2023-02-03T21:44:00.786Z,102677.34
2023-02-03T21:46:31.768Z,102674.81
2023-02-03T21:48:59.946Z,102673.94
2023-02-03T21:51:32.140Z,102671.50
2023-02-03T21:54:01.114Z,102671.09
2023-02-03T21:56:35.721Z,102668.16
2023-02-03T21:59:02.575Z,102672.97
2023-02-03T22:01:36.318Z,102657.31
2023-02-03T22:04:04.130Z,102661.56
2023-02-03T22:06:49.289Z,102652.38
2023-02-03T22:09:18.257Z,102657.22
2023-02-03T22:11:45.450Z,102655.22
2023-02-03T22:14:13.547Z,102654.00
2023-02-03T22:16:40.554Z,102645.72
2023-02-03T22:19:07.368Z,102647.63
2023-02-03T22:21:34.543Z,102643.88
2023-02-03T22:24:01.606Z,102638.09
2023-02-03T22:26:28.545Z,102642.97
2023-02-03T22:28:55.306Z,102639.31
2023-02-03T22:31:22.585Z,102633.25
2023-02-03T22:33:49.367Z,102635.56
2023-02-03T22:36:16.197Z,102643.91
2023-02-03T22:38:43.519Z,102628.97
2023-02-03T22:41:14.131Z,102630.31
2023-02-03T22:43:41.024Z,102622.09
2023-02-03T22:46:08.623Z,102620.63
2023-02-03T22:48:35.486Z,102619.66
2023-02-03T22:51:03.292Z,102611.22
2023-02-03T22:53:30.548Z,102614.81
2023-02-03T22:55:57.455Z,102615.53
2023-02-03T22:58:24.239Z,102610.31
2023-02-03T23:00:50.980Z,102598.81
2023-02-03T23:03:17.780Z,102592.66
2023-02-03T23:05:44.760Z,102592.88
2023-02-03T23:08:11.594Z,102588.91
2023-02-03T23:10:38.310Z,102593.41
2023-02-03T23:13:05.328Z,102594.56
2023-02-03T23:15:32.140Z,102586.31
2023-02-03T23:17:58.998Z,102591.03
2023-02-03T23:20:25.847Z,102581.00
2023-02-03T23:22:52.624Z,102604.53
2023-02-03T23:25:19.361Z,102598.00
2023-02-03T23:27:46.235Z,102596.03
2023-02-03T23:30:14.170Z,102590.91
2023-02-03T23:32:40.949Z,102593.63
2023-02-03T23:35:27.049Z,102590.66
2023-02-03T23:37:53.886Z,102585.72
2023-02-03T23:40:20.973Z,102582.16
2023-02-03T23:42:47.690Z,102579.03
2023-02-03T23:45:14.460Z,102579.53
2023-02-03T23:47:43.089Z,102573.97
2023-02-03T23:50:12.406Z,102588.94
2023-02-03T23:52:39.179Z,102576.41
2023-02-03T23:55:07.916Z,102572.97
2023-02-03T23:57:34.866Z,102582.78
